20 | 04 | 2019

Daten Vortag

Wetterdaten von 10m Höhe gemessen, Station 2

Datum / Zeit Intervall min Luftfeuchte % Temperatur °C absolut Luftdruck hPa Wind m/s Windbö m/s Richtung Relative Luftdruck hPa Taupunkt °C Windchill °C Niederschlag mm
19-04-2019 00:09 5 85 6.5 1031.3 2.5 3.6 NW 1034.9 4.2 6.5 0.0
19-04-2019 00:12 5 85 6.5 1031.2 3.6 5.0 NW 1034.8 4.2 6.5 0.0
19-04-2019 00:17 5 84 6.1 1031.3 5.0 6.1 NW 1034.9 3.6 6.1 0.0
19-04-2019 00:22 5 85 5.7 1031.4 3.6 5.0 NW 1035.0 3.4 5.7 0.0
19-04-2019 00:27 5 87 5.7 1031.4 2.5 3.6 NW 1035.0 3.7 5.7 0.0
19-04-2019 00:32 5 87 6.0 1031.4 1.1 2.5 NW 1035.0 4.0 6.0 0.0
19-04-2019 00:37 5 86 6.0 1031.5 2.5 2.5 NNW 1035.1 3.8 6.0 0.0
19-04-2019 00:42 5 86 6.0 1031.3 2.5 3.6 NW 1034.9 3.8 6.0 0.0
19-04-2019 00:47 5 86 5.7 1031.3 1.1 2.5 NW 1034.9 3.5 5.7 0.0
19-04-2019 00:52 5 87 5.7 1031.3 0.0 0.0 N 1034.9 3.7 5.7 0.0
19-04-2019 00:57 5 87 5.7 1031.3 2.5 3.6 N 1034.9 3.7 5.7 0.0
19-04-2019 01:02 5 87 5.8 1031.4 2.5 3.6 N 1035.0 3.8 5.8 0.0
19-04-2019 01:07 5 86 5.7 1031.5 1.1 2.5 N 1035.1 3.5 5.7 0.0
19-04-2019 01:12 5 87 5.8 1031.5 2.5 3.6 N 1035.1 3.8 5.8 0.0
19-04-2019 01:17 5 86 5.8 1031.4 3.6 5.0 N 1035.0 3.6 5.8 0.0
19-04-2019 01:22 5 85 5.7 1031.4 2.5 3.6 N 1035.0 3.4 5.7 0.0
19-04-2019 01:27 5 86 5.7 1031.4 3.6 5.0 N 1035.0 3.5 5.7 0.0
19-04-2019 01:32 5 86 5.7 1031.5 1.1 2.5 N 1035.1 3.5 5.7 0.0
19-04-2019 01:37 5 85 5.7 1031.4 3.6 3.6 N 1035.0 3.4 5.7 0.0
19-04-2019 01:42 5 86 5.8 1031.3 2.5 3.6 N 1034.9 3.6 5.8 0.0
19-04-2019 01:47 5 85 5.5 1031.4 2.5 3.6 W 1035.0 3.2 5.5 0.0
19-04-2019 01:52 5 84 5.0 1031.4 2.5 3.6 W 1035.0 2.5 5.0 0.0
19-04-2019 01:57 5 86 5.2 1031.3 1.1 2.5 W 1034.9 3.1 5.2 0.0
19-04-2019 02:02 5 87 5.3 1031.2 2.5 3.6 W 1034.8 3.3 5.3 0.0
19-04-2019 02:07 5 86 5.4 1031.2 2.5 3.6 NW 1034.8 3.3 5.4 0.0
19-04-2019 02:12 5 86 5.4 1031.2 1.1 2.5 NW 1034.8 3.3 5.4 0.0
19-04-2019 02:17 5 86 5.3 1031.2 2.5 3.6 W 1034.8 3.2 5.3 0.0
19-04-2019 02:22 5 86 5.2 1031.3 3.6 5.0 W 1034.9 3.1 5.2 0.0
19-04-2019 02:27 5 86 5.4 1031.2 2.5 3.6 NW 1034.8 3.3 5.4 0.0
19-04-2019 02:32 5 86 5.6 1031.1 2.5 3.6 NW 1034.7 3.5 5.6 0.0
19-04-2019 02:37 5 85 5.5 1031.1 2.5 3.6 NW 1034.7 3.2 5.5 0.0
19-04-2019 02:42 5 85 5.4 1031.2 1.1 2.5 NW 1034.8 3.1 5.4 0.0
19-04-2019 02:47 5 85 5.2 1031.0 1.1 2.5 N 1034.6 2.9 5.2 0.0
19-04-2019 02:52 5 85 5.1 1031.1 1.1 2.5 NW 1034.7 2.8 5.1 0.0
19-04-2019 02:57 5 86 4.9 1031.1 1.1 2.5 NW 1034.7 2.8 4.9 0.0
19-04-2019 03:02 5 87 4.7 1031.2 0.0 1.1 NW 1034.8 2.7 4.7 0.0
19-04-2019 03:07 5 88 4.8 1031.1 1.1 2.5 NNW 1034.7 3.0 4.8 0.0
19-04-2019 03:12 5 88 4.7 1031.1 1.1 2.5 NW 1034.7 2.9 4.7 0.0
19-04-2019 03:17 5 89 4.8 1031.2 2.5 3.6 NW 1034.8 3.1 4.8 0.0
19-04-2019 03:22 5 88 5.0 1031.2 3.6 3.6 NW 1034.8 3.2 5.0 0.0
19-04-2019 03:27 5 87 5.0 1031.1 3.6 5.0 NW 1034.7 3.0 5.0 0.0
19-04-2019 03:32 5 87 5.0 1031.0 2.5 3.6 NW 1034.6 3.0 5.0 0.0
19-04-2019 03:37 5 87 5.0 1031.1 2.5 5.0 NW 1034.7 3.0 5.0 0.0
19-04-2019 03:42 5 88 4.7 1031.0 2.5 3.6 NW 1034.6 2.9 4.7 0.0
19-04-2019 03:47 5 89 4.8 1031.2 2.5 3.6 NW 1034.8 3.1 4.8 0.0
19-04-2019 03:52 5 89 4.8 1031.1 2.5 3.6 NW 1034.7 3.1 4.8 0.0
19-04-2019 03:57 5 89 4.9 1031.0 1.1 2.5 NW 1034.6 3.2 4.9 0.0
19-04-2019 04:02 5 89 4.8 1031.1 1.1 2.5 NW 1034.7 3.1 4.8 0.0
19-04-2019 04:07 5 89 4.8 1031.0 1.1 2.5 NW 1034.6 3.1 4.8 0.0
19-04-2019 04:12 5 89 4.8 1031.0 1.1 2.5 NW 1034.6 3.1 4.8 0.0
19-04-2019 04:17 5 89 4.7 1030.9 1.1 2.5 NW 1034.5 3.0 4.7 0.0
19-04-2019 04:22 5 89 4.7 1031.0 1.1 2.5 NW 1034.6 3.0 4.7 0.0
19-04-2019 04:27 5 89 4.5 1030.9 1.1 2.5 NW 1034.5 2.9 4.5 0.0
19-04-2019 04:32 5 89 4.4 1031.1 0.0 1.1 NW 1034.7 2.8 4.4 0.0
19-04-2019 04:37 5 89 4.1 1031.0 0.0 0.0 NW 1034.6 2.5 4.1 0.0
19-04-2019 04:42 5 90 4.1 1030.9 1.1 2.5 NW 1034.5 2.6 4.1 0.0
19-04-2019 04:47 5 91 4.4 1031.0 1.1 2.5 NW 1034.6 3.1 4.4 0.0
19-04-2019 04:52 5 91 4.4 1031.0 1.1 2.5 NW 1034.6 3.1 4.4 0.0
19-04-2019 04:57 5 91 4.4 1030.9 1.1 2.5 NW 1034.5 3.1 4.4 0.0
19-04-2019 05:02 5 92 4.5 1030.8 1.1 3.6 NW 1034.4 3.3 4.5 0.0
19-04-2019 05:07 5 92 4.6 1030.8 3.6 5.0 NW 1034.4 3.4 4.6 0.0
19-04-2019 05:12 5 91 4.5 1030.8 3.6 5.0 NW 1034.4 3.2 4.5 0.0
19-04-2019 05:17 5 91 4.7 1030.8 2.5 5.0 NW 1034.4 3.4 4.7 0.0
19-04-2019 05:22 5 91 4.8 1030.9 2.5 5.0 N 1034.5 3.5 4.8 0.0
19-04-2019 05:27 5 90 4.7 1030.8 1.1 2.5 N 1034.4 3.2 4.7 0.0
19-04-2019 05:32 5 90 4.4 1030.9 0.0 1.1 N 1034.5 2.9 4.4 0.0
19-04-2019 05:37 5 89 4.1 1030.9 0.0 0.0 N 1034.5 2.5 4.1 0.0
19-04-2019 05:42 5 90 3.7 1031.0 0.0 1.1 N 1034.6 2.2 3.7 0.0
19-04-2019 05:47 5 90 3.5 1030.9 1.1 2.5 N 1034.5 2.0 3.5 0.0
19-04-2019 05:52 5 91 3.4 1031.1 0.0 0.0 N 1034.7 2.1 3.4 0.0
19-04-2019 05:57 5 92 3.2 1031.0 0.0 1.1 N 1034.6 2.0 3.2 0.0
19-04-2019 06:02 5 92 3.1 1031.0 0.0 1.1 N 1034.6 1.9 3.1 0.0
19-04-2019 06:07 5 93 3.1 1031.1 2.5 3.6 N 1034.7 2.1 3.1 0.0
19-04-2019 06:12 5 94 3.1 1031.1 1.1 2.5 N 1034.7 2.2 3.1 0.0
19-04-2019 06:17 5 95 3.1 1031.0 1.1 2.5 N 1034.6 2.4 3.1 0.0
19-04-2019 06:22 5 95 3.2 1031.1 1.1 2.5 N 1034.7 2.5 3.2 0.0
19-04-2019 06:27 5 96 3.6 1031.2 1.1 2.5 NE 1034.8 3.0 3.6 0.0
19-04-2019 06:32 5 96 3.9 1031.4 2.5 2.5 N 1035.0 3.3 3.9 0.0
19-04-2019 06:37 5 95 4.1 1031.2 1.1 2.5 N 1034.8 3.4 4.1 0.0
19-04-2019 06:42 5 94 4.2 1031.3 2.5 3.6 N 1034.9 3.3 4.2 0.0
19-04-2019 06:47 5 94 4.5 1031.4 2.5 3.6 NE 1035.0 3.6 4.5 0.0
19-04-2019 06:52 5 92 4.7 1031.5 1.1 2.5 NE 1035.1 3.5 4.7 0.0
19-04-2019 06:57 5 91 4.8 1031.5 2.5 5.0 NE 1035.1 3.5 4.8 0.0
19-04-2019 07:02 5 90 5.1 1031.5 1.1 3.6 NE 1035.1 3.6 5.1 0.0
19-04-2019 07:07 5 89 5.4 1031.5 1.1 3.6 E 1035.1 3.7 5.4 0.0
19-04-2019 07:12 5 88 5.8 1031.4 2.5 3.6 NE 1035.0 4.0 5.8 0.0
19-04-2019 07:17 5 86 6.3 1031.6 1.1 3.6 NE 1035.2 4.1 6.3 0.0
19-04-2019 07:22 5 85 6.8 1031.6 1.1 2.5 NE 1035.2 4.5 6.8 0.0
19-04-2019 07:27 5 82 7.3 1031.7 1.1 3.6 N 1035.3 4.4 7.3 0.0
19-04-2019 07:32 5 81 7.7 1031.7 1.1 3.6 NE 1035.3 4.7 7.7 0.0
19-04-2019 07:37 5 78 7.9 1031.7 2.5 3.6 N 1035.3 4.3 7.9 0.0
19-04-2019 07:42 5 77 8.1 1031.8 1.1 2.5 NE 1035.4 4.3 8.1 0.0
19-04-2019 07:47 5 77 8.5 1031.7 1.1 3.6 NNE 1035.3 4.7 8.5 0.0
19-04-2019 07:52 5 76 8.8 1031.8 0.0 1.1 E 1035.4 4.8 8.8 0.0
19-04-2019 07:57 5 75 9.3 1032.0 2.5 3.6 N 1035.6 5.1 9.3 0.0
19-04-2019 08:02 5 74 9.5 1032.0 2.5 5.0 NE 1035.6 5.1 9.5 0.0
19-04-2019 08:07 5 74 9.5 1032.0 2.5 5.0 NE 1035.6 5.1 9.5 0.0
19-04-2019 08:12 5 73 10.2 1032.1 5.0 6.1 E 1035.7 5.6 10.2 0.0
19-04-2019 08:17 5 71 10.2 1032.1 5.0 7.2 NE 1035.7 5.2 10.2 0.0
19-04-2019 08:22 5 71 10.2 1032.2 5.0 8.6 E 1035.8 5.2 10.2 0.0
19-04-2019 08:27 5 70 10.3 1032.1 6.1 9.7 NE 1035.7 5.1 10.3 0.0
19-04-2019 08:32 5 70 10.4 1032.2 7.2 9.7 NE 1035.8 5.2 9.3 0.0
19-04-2019 08:37 5 69 10.6 1032.3 3.6 6.1 E 1035.9 5.2 10.6 0.0
19-04-2019 08:42 5 68 11.0 1032.3 2.5 5.0 NE 1035.9 5.3 11.0 0.0
19-04-2019 08:47 5 66 11.3 1032.4 6.1 8.6 NE 1036.0 5.2 11.3 0.0
19-04-2019 08:52 5 65 11.4 1032.3 6.1 7.2 NNE 1035.9 5.1 11.4 0.0
19-04-2019 08:57 5 65 11.5 1032.4 5.0 7.2 NE 1036.0 5.2 11.5 0.0
19-04-2019 09:02 5 64 12.1 1032.5 2.5 5.0 E 1036.1 5.5 12.1 0.0
19-04-2019 09:07 5 62 12.4 1032.6 5.0 6.1 NE 1036.2 5.3 12.4 0.0
19-04-2019 09:12 5 62 12.6 1032.4 6.1 8.6 NE 1036.0 5.5 12.6 0.0
19-04-2019 09:17 5 62 12.9 1032.5 3.6 6.1 NE 1036.1 5.8 12.9 0.0
19-04-2019 09:22 5 58 13.3 1032.5 8.6 12.2 E 1036.1 5.2 11.6 0.0
19-04-2019 09:27 5 55 13.5 1032.6 6.1 9.7 E 1036.2 4.7 13.5 0.0
19-04-2019 09:32 5 53 13.6 1032.5 8.6 11.2 NEE 1036.1 4.2 11.9 0.0
19-04-2019 09:37 5 52 13.5 1032.7 8.6 11.2 E 1036.3 3.9 11.8 0.0
19-04-2019 09:42 5 51 13.6 1032.6 5.0 6.1 E 1036.2 3.7 13.6 0.0
19-04-2019 09:47 5 51 14.1 1032.7 6.1 8.6 NE 1036.3 4.1 14.1 0.0
19-04-2019 09:52 5 52 14.3 1032.6 7.2 12.2 E 1036.2 4.6 13.4 0.0
19-04-2019 09:57 5 50 14.3 1032.7 8.6 9.7 E 1036.3 4.0 12.7 0.0
19-04-2019 10:02 5 51 14.3 1032.7 5.0 7.2 E 1036.3 4.3 14.3 0.0
19-04-2019 10:07 5 51 14.3 1032.8 5.0 7.2 E 1036.4 4.3 14.3 0.0
19-04-2019 10:12 5 49 15.1 1032.9 5.0 8.6 E 1036.5 4.5 15.1 0.0
19-04-2019 10:17 5 48 15.2 1032.8 6.1 7.2 NE 1036.4 4.3 15.2 0.0
19-04-2019 10:22 5 48 15.2 1032.9 6.1 8.6 NE 1036.5 4.3 15.2 0.0
19-04-2019 10:27 5 47 15.2 1033.0 2.5 6.1 E 1036.6 4.0 15.2 0.0
19-04-2019 10:32 5 50 15.9 1033.0 5.0 8.6 NEE 1036.6 5.5 15.9 0.0
19-04-2019 10:37 5 47 15.8 1032.7 7.2 9.7 E 1036.3 4.5 15.0 0.0
19-04-2019 10:42 5 46 16.0 1032.8 6.1 9.7 SE 1036.4 4.4 16.0 0.0
19-04-2019 10:47 5 46 16.0 1032.8 3.6 5.0 NE 1036.4 4.4 16.0 0.0
19-04-2019 10:52 5 46 16.2 1032.9 8.6 11.2 E 1036.5 4.6 14.7 0.0
19-04-2019 10:57 5 45 16.2 1032.8 5.0 6.1 E 1036.4 4.3 16.2 0.0
19-04-2019 11:02 5 45 16.4 1032.7 8.6 11.2 SE 1036.3 4.5 15.0 0.0
19-04-2019 11:07 5 45 16.5 1032.9 5.0 7.2 E 1036.5 4.5 16.5 0.0
19-04-2019 11:12 5 45 16.8 1032.9 6.1 11.2 E 1036.5 4.8 16.8 0.0
19-04-2019 11:17 5 43 16.8 1032.7 6.1 9.7 NE 1036.3 4.2 16.8 0.0
19-04-2019 11:22 5 42 17.0 1032.8 11.2 13.3 NEE 1036.4 4.0 14.7 0.0
19-04-2019 11:27 5 42 17.4 1032.6 7.2 9.7 E 1036.2 4.4 16.6 0.0
19-04-2019 11:32 5 42 17.7 1032.7 5.0 7.2 E 1036.3 4.6 17.7 0.0
19-04-2019 11:37 5 40 17.6 1032.6 6.1 8.6 NEE 1036.2 3.9 17.6 0.0
19-04-2019 11:42 5 41 17.8 1032.6 11.2 12.2 NEE 1036.2 4.4 15.6 0.0
19-04-2019 11:47 5 42 18.1 1032.6 6.1 8.6 SE 1036.2 5.0 18.1 0.0
19-04-2019 11:52 5 41 18.2 1032.6 7.2 9.7 E 1036.2 4.8 17.5 0.0
19-04-2019 11:57 5 41 18.3 1032.6 9.7 13.3 E 1036.2 4.8 16.6 0.0
19-04-2019 12:02 5 40 18.3 1032.6 9.7 12.2 NE 1036.2 4.5 16.6 0.0
19-04-2019 12:07 5 40 18.3 1032.6 9.7 12.2 NE 1036.2 4.5 16.6 0.0
19-04-2019 12:12 5 42 18.9 1032.5 8.6 12.2 E 1036.1 5.7 17.7 0.0
19-04-2019 12:17 5 42 18.8 1032.5 7.2 12.2 NEE 1036.1 5.6 18.1 0.0
19-04-2019 12:22 5 40 19.1 1032.5 9.7 14.8 E 1036.1 5.2 17.5 0.0
19-04-2019 12:27 5 39 19.1 1032.5 9.7 11.2 E 1036.1 4.8 17.5 0.0
19-04-2019 12:32 5 39 19.3 1032.4 11.2 13.3 E 1036.0 5.0 17.3 0.0
19-04-2019 12:37 5 40 19.4 1032.4 6.1 11.2 NE 1036.0 5.5 19.4 0.0
19-04-2019 12:42 5 40 19.7 1032.4 8.6 11.2 E 1036.0 5.7 18.5 0.0
19-04-2019 12:47 5 39 19.9 1032.4 8.6 11.2 NE 1036.0 5.6 18.8 0.0
19-04-2019 12:52 5 39 20.0 1032.2 13.3 18.4 NNE 1035.8 5.7 17.6 0.0
19-04-2019 12:57 5 37 20.1 1032.3 11.2 13.3 NE 1035.9 5.0 18.2 0.0
19-04-2019 13:02 5 37 20.1 1032.3 9.7 13.3 NE 1035.9 5.0 18.6 0.0
19-04-2019 13:07 5 38 20.2 1032.4 8.6 12.2 NE 1036.0 5.5 19.1 0.0
19-04-2019 13:12 5 36 20.3 1032.2 11.2 15.8 NE 1035.8 4.8 18.5 0.0
19-04-2019 13:17 5 36 20.4 1032.4 13.3 17.3 NE 1036.0 4.9 18.1 0.0
19-04-2019 13:22 5 34 20.3 1032.4 9.7 12.2 E 1036.0 4.0 18.9 0.0
19-04-2019 13:27 5 36 20.4 1032.2 13.3 18.4 NEE 1035.8 4.9 18.1 0.0
19-04-2019 13:32 5 35 20.4 1032.3 8.6 11.2 E 1035.9 4.5 19.3 0.0
19-04-2019 13:37 5 35 20.6 1032.2 8.6 14.8 NE 1035.8 4.6 19.5 0.0
19-04-2019 13:42 5 36 20.7 1032.3 6.1 9.7 NE 1035.9 5.1 20.7 0.0
19-04-2019 13:47 5 37 20.9 1032.2 13.3 18.4 NEE 1035.8 5.7 18.7 0.0
19-04-2019 13:52 5 38 20.9 1032.3 17.3 22.0 NE 1035.9 6.1 17.9 0.0
19-04-2019 13:57 5 36 20.7 1032.3 9.7 12.2 E 1035.9 5.1 19.3 0.0
19-04-2019 14:02 5 36 20.7 1032.2 9.7 13.3 E 1035.8 5.1 19.3 0.0
19-04-2019 14:07 5 36 20.7 1032.1 9.7 13.3 E 1035.7 5.1 19.3 0.0
19-04-2019 14:12 5 37 21.1 1032.1 12.2 17.3 NE 1035.7 5.9 19.1 0.0
19-04-2019 14:17 5 35 21.0 1032.2 12.2 15.8 NEE 1035.8 5.0 19.0 0.0
19-04-2019 14:22 5 34 21.2 1032.1 7.2 11.2 E 1035.7 4.7 20.6 0.0
19-04-2019 14:27 5 34 21.0 1032.1 13.3 18.4 NE 1035.7 4.6 18.8 0.0
19-04-2019 14:32 5 33 21.1 1032.0 8.6 11.2 E 1035.6 4.2 20.1 0.0
19-04-2019 14:37 5 33 21.2 1032.1 15.8 18.4 E 1035.7 4.3 18.5 0.0
19-04-2019 14:42 5 34 21.1 1032.1 11.2 14.8 NE 1035.7 4.7 19.4 0.0
19-04-2019 14:47 5 34 21.1 1032.1 17.3 22.0 NE 1035.7 4.7 18.2 0.0
19-04-2019 14:52 5 34 21.0 1032.0 11.2 15.8 NE 1035.6 4.6 19.3 0.0
19-04-2019 14:57 5 38 21.0 1031.9 9.7 13.3 NE 1035.5 6.2 19.6 0.0
19-04-2019 15:02 5 40 20.9 1032.1 13.3 20.9 NE 1035.7 6.8 18.7 0.0
19-04-2019 15:07 5 38 20.7 1032.0 9.7 13.3 NE 1035.6 5.9 19.3 0.0
19-04-2019 15:12 5 40 20.6 1032.0 9.7 13.3 E 1035.6 6.6 19.2 0.0
19-04-2019 15:17 5 40 20.4 1032.0 14.8 20.9 E 1035.6 6.4 17.8 0.0
19-04-2019 15:22 5 40 20.3 1032.0 12.2 15.8 NE 1035.6 6.3 18.2 0.0
19-04-2019 15:27 5 38 20.4 1032.0 17.3 24.5 E 1035.6 5.6 17.3 0.0
19-04-2019 15:32 5 35 20.4 1032.1 17.3 20.9 NEE 1035.7 4.5 17.3 0.0
19-04-2019 15:37 5 38 20.4 1031.9 13.3 22.0 E 1035.5 5.6 18.1 0.0
19-04-2019 15:42 5 37 20.3 1031.9 14.8 19.4 NE 1035.5 5.2 17.7 0.0
19-04-2019 15:47 5 36 20.4 1031.9 13.3 19.4 NEE 1035.5 4.9 18.1 0.0
19-04-2019 15:52 5 37 20.2 1031.8 15.8 22.0 NE 1035.4 5.1 17.3 0.0
19-04-2019 15:57 5 37 20.2 1031.9 13.3 18.4 NEE 1035.5 5.1 17.8 0.0
19-04-2019 16:02 5 37 20.2 1031.9 15.8 19.4 NEE 1035.5 5.1 17.3 0.0
19-04-2019 16:07 5 37 20.2 1031.8 15.8 19.4 NEE 1035.4 5.1 17.3 0.0
19-04-2019 16:12 5 37 20.1 1031.8 14.8 18.4 E 1035.4 5.0 17.4 0.0
19-04-2019 16:17 5 39 20.1 1031.8 9.7 14.8 SSE 1035.4 5.7 18.6 0.0
19-04-2019 16:22 5 38 20.2 1031.8 11.2 14.8 NEE 1035.4 5.5 18.4 0.0
19-04-2019 16:27 5 38 20.0 1031.8 13.3 19.4 NEE 1035.4 5.3 17.6 0.0
19-04-2019 16:32 5 37 19.7 1031.7 13.3 15.8 E 1035.3 4.6 17.3 0.0
19-04-2019 16:37 5 38 19.9 1031.7 13.3 22.0 NEE 1035.3 5.2 17.5 0.0
19-04-2019 16:42 5 37 19.6 1031.7 11.2 14.8 NE 1035.3 4.5 17.7 0.0
19-04-2019 16:47 5 36 19.6 1031.8 12.2 20.9 NEE 1035.4 4.1 17.4 0.0
19-04-2019 16:52 5 37 19.8 1031.6 9.7 12.2 NE 1035.2 4.7 18.3 0.0
19-04-2019 16:57 5 36 19.9 1031.6 11.2 15.8 E 1035.2 4.4 18.0 0.0
19-04-2019 17:02 5 35 20.0 1031.6 11.2 14.8 E 1035.2 4.1 18.1 0.0
19-04-2019 17:07 5 35 19.6 1031.6 11.2 15.8 NE 1035.2 3.7 17.7 0.0
19-04-2019 17:12 5 36 19.7 1031.5 9.7 18.4 NE 1035.1 4.2 18.2 0.0
19-04-2019 17:17 5 34 19.7 1031.5 11.2 15.8 E 1035.1 3.4 17.8 0.0
19-04-2019 17:22 5 27 19.5 1031.6 13.3 18.4 NE 1035.2 0.0 17.0 0.0
19-04-2019 17:27 5 26 19.6 1031.4 11.2 15.8 E 1035.0 -0.4 17.7 0.0
19-04-2019 17:32 5 25 19.5 1031.5 15.8 19.4 E 1035.1 -1.0 16.5 0.0
19-04-2019 17:37 5 26 19.4 1031.7 12.2 18.4 E 1035.3 -0.6 17.2 0.0
19-04-2019 17:42 5 30 19.5 1031.4 9.7 13.3 NE 1035.0 1.5 18.0 0.0
19-04-2019 17:47 5 31 19.8 1031.4 11.2 15.8 E 1035.0 2.2 17.9 0.0
19-04-2019 17:52 5 27 19.5 1031.4 13.3 19.4 NEE 1035.0 0.0 17.0 0.0
19-04-2019 17:57 5 25 19.2 1031.4 12.2 18.4 E 1035.0 -1.3 16.9 0.0
19-04-2019 18:02 5 26 19.2 1031.4 11.2 15.8 NE 1035.0 -0.7 17.2 0.0
19-04-2019 18:07 5 26 19.2 1031.4 11.2 15.8 NE 1035.0 -0.7 17.2 0.0
19-04-2019 18:12 5 35 19.2 1031.3 8.6 12.2 NEE 1034.9 3.4 18.0 0.0
19-04-2019 18:17 5 36 19.2 1031.4 12.2 22.0 E 1035.0 3.8 16.9 0.0
19-04-2019 18:22 5 36 18.5 1031.4 13.3 17.3 NEE 1035.0 3.2 15.8 0.0
19-04-2019 18:27 5 39 18.3 1031.5 7.2 9.7 E 1035.1 4.1 17.6 0.0
19-04-2019 18:32 5 35 17.9 1031.4 9.7 13.3 E 1035.0 2.2 16.2 0.0
19-04-2019 18:37 5 34 17.5 1031.4 9.7 15.8 NE 1035.0 1.5 15.8 0.0
19-04-2019 18:42 5 36 17.3 1031.4 8.6 12.2 NE 1035.0 2.1 15.9 0.0
19-04-2019 18:47 5 36 17.1 1031.5 7.2 12.2 E 1035.1 1.9 16.3 0.0
19-04-2019 18:52 5 36 17.1 1031.5 6.1 8.6 NEE 1035.1 1.9 17.1 0.0
19-04-2019 18:57 5 36 17.1 1031.5 11.2 14.8 NE 1035.1 1.9 14.8 0.0
19-04-2019 19:02 5 37 17.0 1031.3 9.7 13.3 E 1034.9 2.2 15.2 0.0
19-04-2019 19:07 5 41 16.9 1031.5 7.2 13.3 NE 1035.1 3.6 16.1 0.0
19-04-2019 19:12 5 41 16.7 1031.4 9.7 13.3 NEE 1035.0 3.4 14.9 0.0
19-04-2019 19:17 5 39 16.3 1031.5 8.6 12.2 NE 1035.1 2.3 14.8 0.0
19-04-2019 19:22 5 38 16.1 1031.5 9.7 12.2 NEE 1035.1 1.8 14.2 0.0
19-04-2019 19:27 5 39 15.6 1031.4 8.6 14.8 NE 1035.0 1.7 14.1 0.0
19-04-2019 19:32 5 40 15.4 1031.4 9.7 11.2 SW 1035.0 1.9 13.4 0.0
19-04-2019 19:37 5 39 15.1 1031.4 8.6 12.2 NE 1035.0 1.3 13.5 0.0
19-04-2019 19:42 5 40 14.9 1031.4 7.2 12.2 E 1035.0 1.4 14.0 0.0
19-04-2019 19:47 5 41 14.6 1031.4 7.2 9.7 NEE 1035.0 1.5 13.7 0.0
19-04-2019 19:52 5 41 14.3 1031.5 7.2 9.7 NEE 1035.1 1.2 13.4 0.0
19-04-2019 19:57 5 42 14.0 1031.7 7.2 11.2 NE 1035.3 1.3 13.1 0.0
19-04-2019 20:02 5 45 13.7 1031.7 7.2 9.7 NE 1035.3 2.0 12.8 0.0
19-04-2019 20:07 5 45 13.7 1031.5 7.2 9.7 NE 1035.1 2.0 12.8 0.0
19-04-2019 20:12 5 46 12.9 1031.6 7.2 9.7 NE 1035.2 1.6 11.9 0.0
19-04-2019 20:17 5 46 12.5 1031.7 7.2 9.7 NEE 1035.3 1.2 11.5 0.0
19-04-2019 20:22 5 47 12.3 1031.8 7.2 9.7 NNE 1035.4 1.3 11.3 0.0
19-04-2019 20:27 5 49 12.0 1031.6 2.5 3.6 NNE 1035.2 1.6 12.0 0.0
19-04-2019 20:32 5 52 11.7 1031.7 5.0 7.2 NEE 1035.3 2.2 11.7 0.0
19-04-2019 20:37 5 52 11.5 1031.7 3.6 5.0 NE 1035.3 2.0 11.5 0.0
19-04-2019 20:42 5 52 11.3 1031.8 2.5 3.6 NEE 1035.4 1.8 11.3 0.0
19-04-2019 20:47 5 53 11.1 1031.8 0.0 1.1 NEE 1035.4 1.9 11.1 0.0
19-04-2019 20:52 5 53 10.9 1031.8 1.1 2.5 NE 1035.4 1.7 10.9 0.0
19-04-2019 20:57 5 53 10.8 1031.8 2.5 3.6 NE 1035.4 1.6 10.8 0.0
19-04-2019 21:02 5 53 10.6 1031.9 3.6 6.1 E 1035.5 1.4 10.6 0.0
19-04-2019 21:07 5 52 10.4 1032.0 2.5 5.0 N 1035.6 1.0 10.4 0.0
19-04-2019 21:12 5 51 10.1 1031.8 1.1 3.6 E 1035.4 0.4 10.1 0.0
19-04-2019 21:17 5 53 9.9 1032.0 6.1 9.7 NE 1035.6 0.8 9.9 0.0
19-04-2019 21:22 5 52 9.7 1031.8 3.6 6.1 E 1035.4 0.3 9.7 0.0
19-04-2019 21:27 5 52 9.6 1031.9 7.2 9.7 NE 1035.5 0.2 8.5 0.0
19-04-2019 21:32 5 53 9.5 1031.9 5.0 8.6 NE 1035.5 0.4 9.5 0.0
19-04-2019 21:37 5 54 9.4 1031.9 1.1 3.6 E 1035.5 0.6 9.4 0.0
19-04-2019 21:42 5 54 9.2 1031.9 2.5 3.6 NW 1035.5 0.4 9.2 0.0
19-04-2019 21:47 5 57 8.9 1032.0 1.1 2.5 W 1035.6 0.9 8.9 0.0
19-04-2019 21:52 5 57 8.8 1031.9 0.0 0.0 W 1035.5 0.8 8.8 0.0
19-04-2019 21:57 5 58 8.8 1031.9 2.5 3.6 NNW 1035.5 1.0 8.8 0.0
19-04-2019 22:02 5 59 8.8 1032.0 1.1 2.5 NW 1035.6 1.2 8.8 0.0
19-04-2019 22:07 5 60 8.4 1032.0 1.1 2.5 NW 1035.6 1.1 8.4 0.0
19-04-2019 22:12 5 60 8.2 1032.0 1.1 2.5 W 1035.6 0.9 8.2 0.0
19-04-2019 22:17 5 61 7.9 1032.0 1.1 2.5 W 1035.6 0.9 7.9 0.0
19-04-2019 22:22 5 62 7.6 1032.1 2.5 3.6 NW 1035.7 0.8 7.6 0.0
19-04-2019 22:27 5 63 7.6 1032.0 2.5 3.6 N 1035.6 1.0 7.6 0.0
19-04-2019 22:32 5 63 7.5 1032.0 3.6 5.0 N 1035.6 0.9 7.5 0.0
19-04-2019 22:37 5 63 7.6 1031.9 2.5 3.6 N 1035.5 1.0 7.6 0.0
19-04-2019 22:42 5 63 7.4 1031.8 0.0 2.5 NE 1035.4 0.8 7.4 0.0
19-04-2019 22:47 5 63 7.1 1031.9 0.0 2.5 NE 1035.5 0.5 7.1 0.0
19-04-2019 22:52 5 63 7.0 1031.8 2.5 3.6 N 1035.4 0.4 7.0 0.0
19-04-2019 22:57 5 64 6.9 1031.8 0.0 2.5 N 1035.4 0.6 6.9 0.0
19-04-2019 23:02 5 64 6.6 1032.0 0.0 1.1 N 1035.6 0.3 6.6 0.0
19-04-2019 23:07 5 64 6.4 1032.0 2.5 3.6 N 1035.6 0.1 6.4 0.0
19-04-2019 23:12 5 65 6.5 1032.0 2.5 3.6 N 1035.6 0.4 6.5 0.0
19-04-2019 23:17 5 65 6.6 1031.9 2.5 3.6 NE 1035.5 0.5 6.6 0.0
19-04-2019 23:22 5 64 6.7 1032.0 3.6 5.0 N 1035.6 0.4 6.7 0.0
19-04-2019 23:27 5 64 6.7 1031.9 1.1 2.5 NE 1035.5 0.4 6.7 0.0
19-04-2019 23:32 5 65 6.5 1031.9 2.5 5.0 N 1035.5 0.4 6.5 0.0
19-04-2019 23:37 5 65 6.4 1032.0 3.6 6.1 N 1035.6 0.3 6.4 0.0
19-04-2019 23:42 5 66 6.2 1032.0 1.1 2.5 N 1035.6 0.3 6.2 0.0
19-04-2019 23:47 5 66 6.0 1031.9 0.0 0.0 N 1035.5 0.1 6.0 0.0
19-04-2019 23:52 5 68 5.9 1031.9 3.6 5.0 N 1035.5 0.5 5.9 0.0
19-04-2019 23:57 5 68 5.9 1031.9 2.5 3.6 N 1035.5 0.5 5.9 0.0

                                                                                Tabelle: 08 : 00 UHR

STATIONHÖHELUFTD.TEMP.T-MinT-MaxU%RR1RR12SSSDDFFFXWetter+WolkenBöen
UFS TW Ems 0 1032.8 8.8 8.8 10.8 90 ---- --- --- O 25 --- --- ---
UFS Deutsche Bucht 0 ------ --- --- --- --- ---- --- --- -- --- --- --- ---
Helgoland 4 1033.4 8.2 8.0 11.0 83 0.0 0 0 -- --- ---   ---
List/Sylt 26 1035.0 7.7 6.0 12.6 71 0.0 0 0 SO 27 37 wolkenlos ---
Schleswig 43 1035.0 7.3 4.9 12.3 81 0.0 0 0 O 13 22 heiter ---
Leuchtturm Kiel 5 1034.9 7.0 6.7 9.2 85 ---- --- --- O 32 39 --- ---
Kiel 27 1034.9 7.2 4.7 10.7 83 0.0 0 0 O 16 21 wolkenlos ---
Fehmarn 3 1035.4 8.1 6.0 8.4 78 0.0 0 0 O 19 25 wolkenlos ---
Arkona 42 1036.7 7.6 5.9 7.7 79 0.0 0 0 O 21 29 wolkenlos ---
Norderney 11 1032.2 9.2 8.2 12.3 74 0.0 0 0 O 14 26 wolkenlos ---
Leuchtt. Alte Weser 32 1032.8 8.3 8.3 14.1 81 ---- --- --- O 29 --- --- ---
Cuxhaven 5 1033.5 7.7 7.6 13.7 76 0.0 0 0 O 20 24 wolkenlos ---
Hamburg-Flh. 11 1033.9 7.4 5.3 13.8 79 0.0 0 0 NO 6 9 wolkenlos ---
Schwerin 59 1034.2 7.9 5.9 15.6 70 0.0 0 0 O 10 17 wolkenlos ---
Rostock 4 1035.1 10.1 7.0 12.7 54 0.0 0 0 O 8 19 wolkenlos ---
Greifswald 2 1035.9 7.7 3.4 7.7 77 0.0 0 0 O 8 14 wolkenlos ---
Emden 0 1031.8 8.2 6.8 16.5 74 0.0 0 0 NO 12 18 --- ---
Bremen-Flh. 5 1032.1 9.4 7.1 19.0 64 0.0 0 0 O 13 18 heiter ---
Lüchow 17 1033.6 6.6 2.8 18.7 74 0.0 0 0 N 9 11 wolkenlos ---
Marnitz 81 1034.1 8.7 2.2 15.9 62 0.0 0 --- SO 2 4 wolkenlos ---
Waren 70 1034.8 7.4 5.0 14.5 67 0.0 0 0 NO 11 17 wolkenlos ---
Neuruppin 38 1034.1 9.6 6.8 17.7 57 0.0 0 --- NO 7 14 --- ---
Angermünde 56 1034.7 8.2 3.0 14.4 59 0.0 0 0 NO 6 11 wolkenlos ---
Münster/Osnabr.-Flh. 48 1029.9 11.4 9.1 19.2 55 0.0 0 0 NO 8 13 heiter ---
Hannover-Flh. 59 1032.1 8.7 6.4 17.4 68 0.0 0 0 O 7 9 wolkenlos ---
Magdeburg 76 1032.8 8.4 4.5 18.9 70 0.0 0 0 N 4 9 wolkenlos ---
Potsdam 81 1033.4 9.9 7.9 17.2 54 0.0 0 0 O 16 28 heiter ---
Berlin-Tegel 37 1033.8 10.7 8.6 18.9 51 0.0 0 0 O 7 15 wolkenlos ---
Berlin-Tempelhof 48 1033.8 10.3 8.2 17.5 55 0.0 0 --- O 13 20 --- ---
Berlin-Dahlem 51 1033.5 9.6 7.8 17.5 --- ---- 0 0 O 14 --- wolkenlos ---
Lindenberg 91 1033.5 10.4 8.9 17.2 53 0.0 0 0 O 13 23 wolkenlos ---
Düsseldorf-Flh. 45 1028.2 10.7 7.4 20.1 61 0.0 0 0 NO 6 9 heiter ---
Essen 150 1028.5 11.2 10.0 19.3 56 0.0 0 --- O 7 19 wolkenlos ---
Kahler Asten 839 ------ 8.5 7.2 12.2 56 0.0 0 0 O 16 26 wolkenlos ---
Bad Lippspringe 157 1029.9 13.3 10.1 17.3 49 0.0 0 --- O 18 26 wolkenlos ---
Fritzlar 174 1030.6 6.8 5.0 17.7 71 ---- 0 0 NW 14 --- wolkenlos ---
Brocken 1142 ------ 8.6 7.2 8.7 56 ---- 0 100 SO 36 47 wolkenlos ---
Leipzig-Flh. 142 1032.1 8.9 7.2 16.3 67 0.0 0 0 O 12 22 wolkenlos ---
Dresden-Flh. 227 1032.5 10.7 7.1 16.9 66 0.0 0 0 O 4 11 wolkenlos ---
Cottbus 69 1033.2 9.3 6.1 18.1 56 0.0 0 0 -- --- 26   ---
Görlitz 238 1033.2 8.4 4.1 16.0 74 0.0 0 0 SO 5 8 wolkenlos ---
Aachen 231 1027.1 10.5 7.6 18.5 63 0.0 0 0 O 16 19 wolkenlos ---
Nürburg 485 1027.3 11.6 9.4 16.7 51 0.0 0 0 O 5 12 wolkenlos ---
Köln/Bonn-Flh. 92 1027.8 13.0 7.5 21.1 51 0.0 0 0 O 8 11 heiter ---
Gießen/Wettenberg 203 1028.8 9.7 6.3 18.0 66 0.0 0 0 NO 8 14 wolkenlos ---
Wasserkuppe 921 ------ 9.1 6.8 11.9 55 0.0 0 0 SO 34 53 wolkenlos Windböen
Meiningen 450 1030.0 11.8 9.0 16.3 47 0.0 0 0 NO 4 8 wolkenlos ---
Erfurt 316 1031.6 7.3 4.5 15.5 72 0.0 0 0 W 3 8 wolkenlos ---
Gera 311 1031.9 7.7 5.0 15.4 71 0.0 0 0 NW 4 17 wolkenlos ---
Fichtelberg 1213 ------ 5.5 3.7 8.0 72 ---- --- --- O 29 35 wolkenlos ---
Trier 265 1026.5 10.6 9.9 18.5 58 0.0 0 0 N 18 27 wolkenlos ---
Hahn-Flh. 497 1027.3 9.4 8.4 16.6 62 0.0 0 0 SO 18 29 --- ---
Frankfurt/M-Flh. 112 1027.9 12.8 9.9 20.8 50 0.0 0 0 N 8 15 heiter ---
OF-Wetterpark 119 1028.0 11.4 6.3 20.4 57 0.0 0 0 NO 8 14 wolkenlos ---
Würzburg 268 1029.2 10.6 8.2 18.4 57 0.0 0 0 SO 3 11 wolkenlos ---
Bamberg 239 ------ --- --- --- --- ---- --- --- -- --- --- --- ---
Hof 567 1030.8 10.1 5.6 15.0 57 0.0 0 0 NO 6 14 wolkenlos ---
Weiden 438 1029.2 11.4 9.7 15.6 52 0.0 0 0 O 21 39 wolkenlos ---
Saarbrücken-Flh. 320 1025.9 10.9 9.6 17.4 58 0.0 0 0 NO 19 28 heiter ---
Karlsruhe-Rheinst. 116 1025.9 12.0 9.7 20.0 59 0.0 0 0 NO 17 31 wolkenlos ---
Mannheim 96 1026.7 15.0 9.3 20.2 41 0.0 0 0 O 2 17 wolkenlos ---
Stuttgart-Flh. 371 1026.8 9.7 7.1 17.7 68 0.0 0 0 O 4 8 wolkenlos ---
Öhringen 276 1027.5 10.5 8.2 18.8 59 0.0 0 0 NO 10 18 wolkenlos ---
Nürnberg-Flh. 314 1028.9 11.3 7.5 18.3 51 0.0 0 0 O 4 11 wolkenlos ---
Regensburg 366 1029.5 7.6 5.0 17.1 69 0.0 0 0 N 7 12 wolkenlos ---
Straubing 351 1028.8 10.9 5.5 16.3 54 0.0 0 0 SO 16 21 wolkenlos ---
Großer Arber 1436 ------ 5.7 4.4 6.5 56 ---- --- 143 SO 35 56   Windböen
Lahr 155 1026.0 9.0 6.5 19.8 79 0.0 0 0 S 5 8 wolkenlos ---
Freudenstadt 797 ------ 10.3 6.7 15.0 59 0.0 0 0 O 5 8 wolkenlos ---
Stötten 734 1027.3 8.0 6.8 14.4 65 0.0 0 0 O 23 33 wolkenlos ---
Augsburg 462 1027.9 8.6 4.5 16.4 69 0.0 0 0 NO 8 10 wolkenlos ---
München-Flh. 444 1028.3 8.6 6.1 16.5 63 0.0 0 0 NO 10 15 wolkenlos ---
Fürstenzell 476 1028.8 11.4 8.1 16.0 51 0.0 0 0 O 11 22 wolkenlos ---
Feldberg/Schw. 1486 ------ 8.3 6.8 9.6 58 ---- --- 51 NW 13 16 wolkenlos ---
Konstanz 443 1026.3 10.5 7.6 18.4 66 0.0 0 0 N 3 8 wolkenlos ---
Kempten 705 1028.1 5.1 2.1 15.4 75 0.0 0 0 O 3 10 wolkenlos ---
Oberstdorf 806 ------ 2.5 0.6 12.6 84 0.0 0 0 O 2 6 wolkenlos ---
Zugspitze 2960 ------ -1.5 -5.8 -1.4 53 ---- --- 420 O 6 13 wolkenlos ---
Hohenpeißenberg 977 ------ 11.2 9.8 13.0 45 0.0 0 0 S 13 21 wolkenlos ---

                                                                                              Tabelle: 20 : 00 UHR     

STATIONHÖHELUFTD.TEMP.T-MinT-MaxU%RR1RR12SSSDDFFFXWetter+WolkenBöen
UFS TW Ems 0 1032.3 10.7 8.4 10.7 83 ---- --- --- NO 25 --- --- ---
UFS Deutsche Bucht 26 1032.4 11.1 7.9 12.3 75 ---- --- --- -- 25 --- --- ---
Helgoland 4 1032.4 12.3 8.1 14.4 63 0.0 0 0 -- --- ---   ---
List/Sylt 26 1033.7 13.8 7.7 18.8 57 0.0 0 0 O 18 24 wolkenlos ---
Schleswig 43 1034.1 11.7 7.3 16.7 44 0.0 0 0 O 14 27 wolkenlos ---
Leuchtturm Kiel 5 1034.0 9.6 7.0 12.0 60 ---- --- --- O 38 46 --- ---
Kiel 27 1034.1 10.7 7.2 15.6 59 0.0 0 0 O 17 27 wolkenlos ---
Fehmarn 3 1034.6 9.1 8.2 13.1 64 0.0 0 0 O 19 28 wolkenlos ---
Arkona 42 1035.4 6.4 6.4 9.3 74 0.0 0 0 O 11 15 wolkenlos ---
Norderney 11 1031.3 13.3 9.2 15.6 64 0.0 0 0 O 28 41 wolkenlos ---
Leuchtt. Alte Weser 32 1031.1 15.2 8.3 18.6 64 ---- --- --- NO 47 --- --- ---
Cuxhaven 5 1032.0 15.3 7.7 19.1 68 0.0 0 0 O 24 36 wolkenlos ---
Hamburg-Flh 11 1032.1 15.9 7.4 21.9 47 0.0 0 0 NO 21 37 wolkenlos ---
Schwerin 59 1032.9 16.3 7.9 21.7 40 0.0 0 0 O 13 27 wolkenlos ---
Rostock 4 1034.2 14.3 10.1 16.8 45 0.0 0 0 SO 13 20 wolkenlos ---
Greifswald 2 1035.0 7.5 7.5 12.1 76 0.0 0 0 NO 12 18 wolkenlos ---
Emden 0 1030.7 17.3 8.3 22.7 53 0.0 0 0 NO 15 27 wolkenlos ---
Bremen-Flh. 5 1030.2 20.6 9.4 22.9 35 0.0 0 0 O 10 21 wolkenlos ---
Lüchow 17 1031.7 19.1 6.7 22.7 33 0.0 0 0 O 12 21 wolkenlos ---
Marnitz 81 1032.9 15.8 7.8 22.2 34 0.0 0 --- O 13 31 wolkenlos ---
Waren 70 1033.6 13.5 7.5 21.0 35 0.0 0 0 NO 14 24 wolkenlos ---
Neuruppin 38 1032.5 17.4 9.7 22.7 26 0.0 0 --- NO 12 28 --- ---
Angermünde 56 1033.2 13.5 8.2 21.6 37 0.0 0 0 N 10 24 wolkenlos ---
Münster/Osnabr.-Flh. 48 1028.7 21.1 11.4 24.4 35 0.0 0 0 NO 8 28 wolkenlos ---
Hannover-Flh. 59 1030.2 20.5 8.8 22.6 30 0.0 0 0 SO 13 25 wolkenlos ---
Magdeburg 76 1030.5 20.6 8.5 23.4 25 0.0 0 0 NO 10 19 wolkenlos ---
Potsdam 81 1031.2 18.1 10.0 24.0 31 0.0 0 0 NO 15 28 wolkenlos ---
Berlin-Tegel 37 1031.7 18.9 10.7 22.4 26 0.0 0 0 NO 14 28 wolkenlos ---
Berlin-Tempelhof 48 1031.6 17.4 10.3 21.4 29 0.0 0 --- NO 20 31 --- ---
Berlin-Dahlem 51 1031.4 18.1 9.5 22.5 --- ---- 0 0 NO 18 --- wolkenlos ---
Lindenberg 91 1031.3 16.8 10.4 22.2 36 0.0 0 0 NO 8 26 wolkenlos ---
Düsseldorf-Flh. 45 1027.1 22.3 10.8 25.1 27 0.0 0 0 NO 22 31 heiter ---
Essen 150 1027.2 21.1 11.2 23.8 29 0.0 0 0 O 13 32 wolkenlos ---
Kahler Asten 839 ------ 14.8 8.6 17.5 43 0.0 0 0 O 15 31 wolkenlos ---
Bad Lippspringe 157 1028.9 18.5 13.3 22.1 36 0.0 0 --- O 14 30 wolkenlos ---
Fritzlar 174 1028.2 19.7 6.9 22.5 32 ---- 0 0 O 14 --- wolkenlos ---
Brocken 1142 ------ 10.3 8.6 12.5 49 ---- 0 95 O 32 40 wolkenlos ---
Leipzig-Flh. 142 1029.8 19.1 8.9 21.7 32 0.0 0 0 O 10 17 wolkenlos ---
Dresden-Flh. 227 1029.9 18.6 10.3 21.8 29 0.0 0 0 NO 12 23 wolkenlos ---
Cottbus 69 1030.5 18.9 9.3 23.0 28 0.0 0 0 N 5 18 wolkenlos ---
Görlitz 238 1030.4 17.7 8.4 20.8 34 0.0 0 0 O 10 26 wolkenlos ---
Aachen 231 1026.7 18.6 10.5 22.3 36 0.0 0 0 O 15 28 wolkenlos ---
Nürburg 485 1026.8 18.1 11.4 20.5 30 0.0 0 0 O 8 19 wolkenlos ---
Köln/Bonn-Flh. 92 1026.9 21.1 12.9 24.9 25 0.0 0 0 SO 9 21 wolkenlos ---
Gießen/Wettenberg 203 1026.7 19.4 9.8 23.1 37 0.0 0 0 O 12 26 wolkenlos ---
Wasserkuppe 921 ------ 13.8 9.1 19.6 40 0.0 0 0 SO 18 36 wolkenlos ---
Meiningen 450 1027.8 18.2 11.6 21.9 30 0.0 0 0 O 18 28 wolkenlos ---
Erfurt 316 1029.2 17.1 7.4 21.0 38 0.0 0 0 NO 13 29 wolkenlos ---
Gera 311 1029.3 17.0 7.8 21.6 39 0.0 0 0 NO 17 27 wolkenlos ---
Fichtelberg 1213 ------ 9.8 5.5 13.2 41 ---- --- --- O 26 36 wolkenlos ---
Trier 265 1025.7 20.1 10.6 24.3 34 0.0 0 0 O 13 26 wolkenlos ---
Hahn-Flh. 497 1026.7 17.9 9.4 20.5 33 0.0 0 0 SO 12 24 --- ---
Frankfurt/M-Flh. 112 1026.4 22.9 12.8 24.1 18 0.0 0 0 O 6 21 wolkenlos ---
OF-Wetterpark 119 1026.5 22.2 11.4 24.0 23 0.0 0 0 SO 5 20 wolkenlos ---
Würzburg 268 1026.8 20.0 10.2 23.8 31 0.0 0 0 SO 11 23 wolkenlos ---
Bamberg 239 ------ --- --- --- --- ---- --- --- -- --- --- --- ---
Hof 567 1028.5 16.9 10.1 20.1 29 0.0 0 0 O 10 23 wolkenlos ---
Weiden 438 1027.6 17.7 11.5 20.7 30 0.0 0 0 O 10 30 wolkenlos ---
Saarbrücken-Flh. 320 1025.5 18.7 10.8 23.0 36 0.0 0 0 O 9 21 heiter ---
Karlsruhe-Rheinst. 116 1025.3 21.0 12.0 23.9 32 0.0 0 0 NO 14 27 wolkenlos ---
Mannheim 96 1026.0 21.6 15.1 24.8 26 0.0 0 0 O 6 23 wolkenlos ---
Stuttgart-Flh. 371 1025.3 19.3 9.7 22.6 32 0.0 0 0 O 12 21 heiter ---
Öhringen 276 1026.0 20.2 10.4 23.9 30 0.0 0 --- O 13 18 wolkenlos ---
Nürnberg-Flh. 314 1026.4 20.6 11.3 23.6 29 0.0 0 0 O 12 28 heiter ---
Regensburg 366 1026.7 18.8 7.3 23.6 36 0.0 0 0 NO 9 23 wolkenlos ---
Straubing 351 1026.9 16.8 11.0 22.2 35 0.0 0 0 SO 9 17 wolkenlos ---
Großer Arber 1436 ------ 8.9 5.7 12.1 47 ---- --- 138 NO 13 24 wolkenlos ---
Lahr 155 1024.5 19.4 9.1 22.8 45 0.0 0 0 N 11 20 wolkenlos ---
Freudenstadt 797 ------ 16.8 9.2 19.7 36 0.0 0 0 O 10 26 --- ---
Stötten 734 1026.1 15.7 8.0 19.3 34 0.0 0 0 O 12 21 wolkenlos ---
Augsburg 462 1026.3 16.3 8.7 20.9 32 0.0 0 0 O 12 22 wolkenlos ---
München-Flh. 444 1026.0 18.2 8.8 20.9 27 0.0 0 0 NO 9 22 wolkenlos ---
Fürstenzell 476 1026.7 18.0 11.5 21.1 33 0.0 0 0 NO 19 31 wolkenlos ---
Feldberg/Schw. 1486 ------ 10.0 8.3 12.5 68 ---- --- 47 N 9 14 --- ---
Konstanz 443 1024.3 20.2 9.9 23.3 26 0.0 0 0 N 5 13 wolkenlos ---
Kempten 705 1024.8 17.0 5.2 20.8 36 0.0 0 0 N 4 17 wolkenlos ---
Oberstdorf 806 ------ 13.7 1.1 20.1 40 0.0 0 0 SO 18 23 wolkenlos ---
Zugspitze 2960 ------ -0.3 -3.0 1.4 64 ---- --- --- SO 9 17 wolkenlos ---
Hohenpeißenberg 977 ------ 14.6 10.9 17.9 39 0.0 0 0 NO 15 24 wolkenlos ---

 

  • Temperatur
  • Wetterzustand
  • Windrichtung und -geschwindigkeit
  • Luftdruck
  • relative Luftfeuchtigkeit
  • Sichtweite
  • Gesamtbedeckungsgrad
  • Niederschlag
  • Sonnenscheindauer

 Höhe:     m über NN
Luftd.:   auf Meereshöhe reduzierter Luftdruck in hPa
TEMP.:   Lufttemperatur in Grad Celsius
T-MIN:   Minimumtemperatur der Luft in 2m Höhe in Grad Celsius, von 18 UTC Vortag bis 06 UTC heute
T-MAX:  Maximumtemperatur der Luft in 2m Höhe in Grad Celsius, von 18 UTC Vortag bis 06 UTC heute
RR1:     Niederschlagsmenge, einstündig, mm ist gleich Liter pro
RR12:   Niederschlagsmenge, 12 stündig, 18 UTC Vortag bis 06 UTC heute in mm ist gleich Liter pro
SSS:     Gesamtschneehöhe
DD:      Windrichtung
FF:       Windgeschwindigkeit letztes 10-Minutenmittel in km/h
FX:       höchste Windspitze während der letzten Stunde in km/h
---:      Wert nicht vorhanden

 

2009-2019

Unwetterwarnungen

 

Radarbild          
aktueller Radarfilm Deutschland

Europa-Meteoalarm